createdAt,value
2022-08-22T00:02:53.999Z,18.3
2022-08-22T00:02:54.637Z,18.3
2022-08-22T00:03:15.577Z,17.5
2022-08-22T00:03:15.675Z,17.7
2022-08-22T00:03:15.861Z,17.5
2022-08-22T00:07:48.995Z,17.5
2022-08-22T00:12:49.004Z,17.7
2022-08-22T00:42:48.981Z,17.3
2022-08-22T00:47:49.003Z,17.7
2022-08-22T00:52:48.996Z,17.7
2022-08-22T00:57:49.019Z,17.4
2022-08-22T01:02:52.401Z,17.6
2022-08-22T01:07:49.005Z,17.6
2022-08-22T01:12:48.996Z,17.4
2022-08-22T01:17:48.992Z,17.7
2022-08-22T01:22:49.015Z,17.5
2022-08-22T01:27:48.990Z,17.7
2022-08-22T01:32:49.034Z,17.4
2022-08-22T01:37:49.000Z,17.2
2022-08-22T01:42:49.010Z,16.9
2022-08-22T01:47:48.990Z,17.1
2022-08-22T01:52:49.024Z,17.3
2022-08-22T01:57:48.992Z,17.7
2022-08-22T02:02:49.005Z,17.7
2022-08-22T02:07:49.049Z,17.6
2022-08-22T02:12:49.007Z,17.4
2022-08-22T02:17:49.008Z,17.4
2022-08-22T02:22:49.008Z,17.4
2022-08-22T02:27:49.007Z,17.2
2022-08-22T02:32:49.008Z,16.7
2022-08-22T02:37:49.023Z,17.0
2022-08-22T02:42:49.010Z,17.2
2022-08-22T02:47:49.050Z,17.3
2022-08-22T02:52:49.022Z,17.4
2022-08-22T02:57:49.024Z,17.2
2022-08-22T03:02:49.008Z,17.5
2022-08-22T03:07:49.029Z,17.5
2022-08-22T03:12:49.006Z,17.4
2022-08-22T03:17:49.017Z,17.2
2022-08-22T03:22:49.033Z,17.1
2022-08-22T03:27:50.092Z,17.4
2022-08-22T03:32:49.037Z,17.4
2022-08-22T03:37:49.034Z,16.9
2022-08-22T03:42:49.033Z,17.2
2022-08-22T03:47:49.018Z,17.2
2022-08-22T03:52:49.044Z,16.8
2022-08-22T03:57:49.036Z,17.0
2022-08-22T04:02:49.026Z,16.9
2022-08-22T04:07:49.048Z,16.8
2022-08-22T04:12:49.027Z,16.9
2022-08-22T04:17:49.052Z,17.0
2022-08-22T04:22:49.042Z,17.1
2022-08-22T04:27:49.049Z,17.0
2022-08-22T04:32:49.033Z,17.1
2022-08-22T04:37:49.055Z,17.0
2022-08-22T04:42:49.035Z,17.2
2022-08-22T04:47:53.881Z,17.1
2022-08-22T04:52:49.043Z,17.0
2022-08-22T04:57:49.068Z,16.9
2022-08-22T05:02:49.175Z,17.0
2022-08-22T05:07:49.060Z,17.0
2022-08-22T05:12:49.056Z,17.0
2022-08-22T05:17:49.049Z,17.0
2022-08-22T05:22:49.087Z,17.0
2022-08-22T05:27:49.049Z,17.1
2022-08-22T05:32:49.076Z,17.2
2022-08-22T05:37:49.065Z,17.2
2022-08-22T05:42:49.064Z,17.2
2022-08-22T05:47:49.056Z,17.1
2022-08-22T05:52:49.073Z,17.2
2022-08-22T05:57:49.067Z,17.2
2022-08-22T06:02:49.066Z,17.2
2022-08-22T06:07:49.077Z,17.5
2022-08-22T06:12:49.070Z,17.8
2022-08-22T06:17:49.094Z,18.0
2022-08-22T06:22:49.071Z,18.6
2022-08-22T06:27:49.092Z,18.2
2022-08-22T06:32:59.523Z,18.4
2022-08-22T06:37:49.085Z,18.6
2022-08-22T06:42:49.088Z,18.7
2022-08-22T06:47:50.173Z,18.8
2022-08-22T06:52:49.080Z,18.1
2022-08-22T06:57:49.116Z,18.4
2022-08-22T07:02:49.101Z,18.6
2022-08-22T07:07:49.100Z,20.2
2022-08-22T07:12:49.092Z,21.0
2022-08-22T07:17:49.108Z,23.2
2022-08-22T07:22:49.108Z,24.1
2022-08-22T07:27:49.124Z,22.7
2022-08-22T07:32:49.123Z,21.4
2022-08-22T07:37:49.105Z,20.9
2022-08-22T07:42:49.100Z,20.8
2022-08-22T07:47:49.842Z,20.7
2022-08-22T07:52:49.106Z,20.5
2022-08-22T07:57:49.121Z,20.0
2022-08-22T08:02:49.111Z,20.0
2022-08-22T08:07:49.123Z,19.9
2022-08-22T08:12:54.211Z,19.9
2022-08-22T08:17:49.125Z,19.8
2022-08-22T08:42:49.134Z,19.1
2022-08-22T08:47:49.146Z,19.0
2022-08-22T08:52:52.576Z,19.0
2022-08-22T08:57:49.142Z,19.0
2022-08-22T09:02:49.139Z,18.9
2022-08-22T09:07:49.149Z,19.0
2022-08-22T09:17:49.224Z,19.1
2022-08-22T09:22:50.581Z,19.2
2022-08-22T09:27:49.145Z,19.2
2022-08-22T09:32:49.142Z,19.1
2022-08-22T09:37:49.177Z,19.4
2022-08-22T09:42:49.138Z,19.9
2022-08-22T09:47:49.163Z,20.4
2022-08-22T09:52:49.168Z,20.0
2022-08-22T09:57:49.162Z,20.3
2022-08-22T10:02:53.713Z,20.5
2022-08-22T10:07:52.671Z,21.4
2022-08-22T10:12:49.179Z,20.4
2022-08-22T10:17:49.166Z,20.9
2022-08-22T10:22:49.182Z,21.3
2022-08-22T10:27:49.168Z,23.8
2022-08-22T10:32:49.177Z,24.0
2022-08-22T10:37:50.379Z,24.5
2022-08-22T10:42:49.174Z,24.2
2022-08-22T10:47:49.185Z,23.6
2022-08-22T10:52:49.186Z,24.3
2022-08-22T10:57:52.655Z,24.4
2022-08-22T11:02:49.185Z,24.0
2022-08-22T11:07:50.272Z,24.9
2022-08-22T11:12:49.182Z,24.4
2022-08-22T11:17:54.266Z,23.4
2022-08-22T11:22:49.201Z,24.0
2022-08-22T11:27:49.177Z,24.4
2022-08-22T11:32:49.205Z,23.6
2022-08-22T11:37:49.208Z,23.7
2022-08-22T11:42:49.217Z,23.4
2022-08-22T11:47:49.209Z,23.5
2022-08-22T11:52:51.566Z,24.1
2022-08-22T11:57:49.205Z,24.4
2022-08-22T12:02:49.211Z,24.7
2022-08-22T12:07:49.218Z,23.7
2022-08-22T12:12:49.207Z,24.4
2022-08-22T12:17:55.386Z,24.9
2022-08-22T12:22:49.885Z,24.2
2022-08-22T12:27:50.865Z,24.9
2022-08-22T12:32:49.308Z,25.0
2022-08-22T12:37:52.140Z,24.6
2022-08-22T12:42:49.222Z,24.9
2022-08-22T12:47:49.208Z,24.8
2022-08-22T12:52:49.229Z,24.3
2022-08-22T12:57:50.535Z,25.5
2022-08-22T13:02:49.231Z,25.1
2022-08-22T13:07:49.236Z,25.2
2022-08-22T13:12:49.233Z,25.4
2022-08-22T13:17:49.222Z,25.5
2022-08-22T13:22:49.227Z,25.4
2022-08-22T13:27:50.639Z,24.8
2022-08-22T13:32:49.226Z,24.6
2022-08-22T13:38:00.698Z,24.7
2022-08-22T13:42:49.225Z,24.5
2022-08-22T13:47:49.236Z,24.5
2022-08-22T13:52:52.546Z,24.1
2022-08-22T13:57:51.828Z,24.3
2022-08-22T14:02:49.209Z,24.9
2022-08-22T14:07:50.048Z,24.9
2022-08-22T14:12:50.652Z,25.3
2022-08-22T14:17:49.245Z,24.5
2022-08-22T14:22:52.909Z,24.4
2022-08-22T14:27:49.216Z,24.6
2022-08-22T14:37:49.240Z,24.4
2022-08-22T14:42:49.220Z,24.4
2022-08-22T14:47:55.610Z,24.4
2022-08-22T14:52:49.224Z,24.2
2022-08-22T14:57:49.232Z,23.7
2022-08-22T15:02:49.238Z,23.5
2022-08-22T15:07:49.234Z,23.3
2022-08-22T15:12:49.227Z,23.2
2022-08-22T15:17:50.987Z,23.4
2022-08-22T15:22:49.225Z,23.4
2022-08-22T15:27:49.239Z,23.2
2022-08-22T15:32:49.363Z,23.2
2022-08-22T15:37:49.240Z,23.1
2022-08-22T15:42:50.135Z,23.2
2022-08-22T15:47:49.233Z,23.1
2022-08-22T15:52:57.018Z,23.0
2022-08-22T15:57:49.222Z,22.9
2022-08-22T16:02:49.236Z,22.9
2022-08-22T16:07:49.233Z,22.9
2022-08-22T16:12:49.236Z,22.9
2022-08-22T16:17:49.471Z,22.9
2022-08-22T16:22:49.236Z,22.9
2022-08-22T16:27:49.237Z,22.7
2022-08-22T16:32:49.245Z,22.6
2022-08-22T16:37:49.243Z,22.5
2022-08-22T16:42:49.232Z,22.4
2022-08-22T16:48:02.147Z,22.4
2022-08-22T16:52:49.234Z,22.2
2022-08-22T16:58:05.395Z,22.2
2022-08-22T17:02:49.248Z,22.2
2022-08-22T17:07:49.228Z,22.2
2022-08-22T17:12:49.237Z,22.2
2022-08-22T17:17:49.243Z,22.4
2022-08-22T17:22:49.233Z,22.3
2022-08-22T17:27:49.244Z,22.3
2022-08-22T17:32:57.157Z,22.0
2022-08-22T17:37:49.250Z,21.7
2022-08-22T17:42:49.244Z,21.5
2022-08-22T17:47:49.252Z,21.4
2022-08-22T17:52:49.271Z,21.4
2022-08-22T17:57:49.245Z,21.3
2022-08-22T18:02:49.249Z,21.4
2022-08-22T18:07:49.241Z,21.1
2022-08-22T18:12:51.667Z,20.7
2022-08-22T18:17:49.230Z,20.9
2022-08-22T18:22:49.265Z,20.8
2022-08-22T18:27:49.238Z,20.8
2022-08-22T18:32:49.250Z,20.9
2022-08-22T18:37:49.238Z,20.5
2022-08-22T18:42:49.253Z,20.7
2022-08-22T18:47:49.238Z,20.3
2022-08-22T18:52:49.254Z,20.2
2022-08-22T18:57:49.238Z,20.5
2022-08-22T19:02:51.155Z,20.4
2022-08-22T19:07:49.251Z,20.4
2022-08-22T19:12:49.248Z,20.5
2022-08-22T19:17:59.062Z,20.4
2022-08-22T19:23:00.802Z,20.0
2022-08-22T19:27:49.258Z,20.2
2022-08-22T19:32:49.233Z,20.3
2022-08-22T19:37:49.258Z,20.2
2022-08-22T19:42:49.242Z,20.0
2022-08-22T19:47:49.244Z,20.0
2022-08-22T19:52:49.255Z,20.0
2022-08-22T19:57:49.251Z,20.0
2022-08-22T20:02:49.247Z,20.0
2022-08-22T20:07:49.238Z,19.7
2022-08-22T20:12:49.245Z,20.0
2022-08-22T20:18:12.041Z,20.0
2022-08-22T20:22:49.236Z,19.9
2022-08-22T20:27:49.252Z,20.0
2022-08-22T20:32:49.248Z,20.0
2022-08-22T20:38:06.265Z,19.6
2022-08-22T20:42:49.239Z,19.9
2022-08-22T20:47:49.565Z,19.9
2022-08-22T20:52:54.295Z,20.0
2022-08-22T20:57:49.256Z,19.9
2022-08-22T21:02:49.295Z,19.9
2022-08-22T21:07:49.255Z,19.8
2022-08-22T21:12:49.252Z,19.9
2022-08-22T21:17:49.261Z,19.9
2022-08-22T21:22:49.253Z,19.5
2022-08-22T21:27:49.259Z,19.6
2022-08-22T21:32:52.392Z,19.9
2022-08-22T21:37:49.250Z,19.9
2022-08-22T21:42:49.254Z,19.5
2022-08-22T21:47:49.262Z,19.6
2022-08-22T21:52:49.251Z,19.9
2022-08-22T21:57:49.260Z,19.9
2022-08-22T22:02:49.268Z,19.7
2022-08-22T22:07:49.264Z,19.6
2022-08-22T22:12:49.265Z,19.7
2022-08-22T22:17:49.262Z,19.8
2022-08-22T22:22:49.256Z,19.5
2022-08-22T22:27:49.267Z,19.6
2022-08-22T22:32:49.262Z,19.6
2022-08-22T22:37:49.262Z,19.5
2022-08-22T22:42:49.263Z,19.6
2022-08-22T22:47:49.298Z,19.6
2022-08-22T22:52:49.263Z,19.4
2022-08-22T22:57:49.273Z,19.5
2022-08-22T23:02:49.268Z,19.5
2022-08-22T23:07:49.271Z,19.7
2022-08-22T23:12:49.261Z,19.7
2022-08-22T23:17:49.264Z,19.7
2022-08-22T23:22:49.265Z,19.7
2022-08-22T23:27:52.242Z,19.7
2022-08-22T23:32:49.266Z,19.7
2022-08-22T23:37:49.269Z,19.7
2022-08-22T23:42:49.264Z,19.7
2022-08-22T23:47:49.267Z,19.7
2022-08-22T23:52:49.265Z,19.6
2022-08-22T23:57:49.267Z,19.6
